sensor_id;sensor_type;location;lat;lon;timestamp;pressure;altitude;pressure_sealevel;temperature;humidity
35291;BME280;21411;50.024;19.220;2023-06-14T00:02:17;98838.43;;;10.01;100.00
35291;BME280;21411;50.024;19.220;2023-06-14T00:04:44;98836.72;;;10.03;100.00
35291;BME280;21411;50.024;19.220;2023-06-14T00:07:11;98834.94;;;10.00;100.00
35291;BME280;21411;50.024;19.220;2023-06-14T00:09:39;98833.79;;;9.99;100.00
35291;BME280;21411;50.024;19.220;2023-06-14T00:12:06;98831.77;;;9.97;100.00
35291;BME280;21411;50.024;19.220;2023-06-14T00:14:33;98830.59;;;9.96;100.00
35291;BME280;21411;50.024;19.220;2023-06-14T00:16:59;98830.56;;;9.94;100.00
35291;BME280;21411;50.024;19.220;2023-06-14T00:19:26;98828.10;;;9.91;100.00
35291;BME280;21411;50.024;19.220;2023-06-14T00:21:52;98828.09;;;9.88;100.00
35291;BME280;21411;50.024;19.220;2023-06-14T00:24:19;98826.38;;;9.88;100.00
35291;BME280;21411;50.024;19.220;2023-06-14T00:26:46;98827.98;;;9.87;100.00
35291;BME280;21411;50.024;19.220;2023-06-14T00:29:13;98830.20;;;9.89;100.00
35291;BME280;21411;50.024;19.220;2023-06-14T00:31:40;98829.02;;;9.91;100.00
35291;BME280;21411;50.024;19.220;2023-06-14T00:34:06;98824.95;;;9.91;100.00
35291;BME280;21411;50.024;19.220;2023-06-14T00:36:32;98822.99;;;9.91;100.00
35291;BME280;21411;50.024;19.220;2023-06-14T00:38:59;98824.63;;;9.90;100.00
35291;BME280;21411;50.024;19.220;2023-06-14T00:41:26;98822.80;;;9.91;100.00
35291;BME280;21411;50.024;19.220;2023-06-14T00:43:53;98824.67;;;9.92;100.00
35291;BME280;21411;50.024;19.220;2023-06-14T00:46:22;98824.63;;;9.93;100.00
35291;BME280;21411;50.024;19.220;2023-06-14T00:48:48;98825.89;;;9.95;100.00
35291;BME280;21411;50.024;19.220;2023-06-14T00:51:15;98824.92;;;9.96;100.00
35291;BME280;21411;50.024;19.220;2023-06-14T00:53:41;98829.52;;;9.97;100.00
35291;BME280;21411;50.024;19.220;2023-06-14T00:56:15;98828.65;;;9.96;100.00
35291;BME280;21411;50.024;19.220;2023-06-14T00:58:42;98828.13;;;9.96;100.00
35291;BME280;21411;50.024;19.220;2023-06-14T01:01:09;98828.17;;;9.95;100.00
35291;BME280;21411;50.024;19.220;2023-06-14T01:03:36;98825.40;;;9.94;100.00
35291;BME280;21411;50.024;19.220;2023-06-14T01:06:30;98815.07;;;9.92;100.00
35291;BME280;21411;50.024;19.220;2023-06-14T01:09:18;98809.86;;;9.88;100.00
35291;BME280;21411;50.024;19.220;2023-06-14T01:12:03;98809.04;;;9.84;100.00
35291;BME280;21411;50.024;19.220;2023-06-14T01:14:33;98808.13;;;9.84;100.00
35291;BME280;21411;50.024;19.220;2023-06-14T01:17:01;98805.52;;;9.86;100.00
35291;BME280;21411;50.024;19.220;2023-06-14T01:19:28;98803.22;;;9.86;100.00
35291;BME280;21411;50.024;19.220;2023-06-14T01:21:55;98804.11;;;9.84;100.00
35291;BME280;21411;50.024;19.220;2023-06-14T01:24:22;98805.08;;;9.85;100.00
35291;BME280;21411;50.024;19.220;2023-06-14T01:26:55;98809.94;;;9.89;100.00
35291;BME280;21411;50.024;19.220;2023-06-14T01:29:24;98804.81;;;9.92;100.00
35291;BME280;21411;50.024;19.220;2023-06-14T01:31:53;98799.64;;;9.92;100.00
35291;BME280;21411;50.024;19.220;2023-06-14T01:34:20;98801.61;;;9.92;100.00
35291;BME280;21411;50.024;19.220;2023-06-14T01:36:47;98804.65;;;9.89;100.00
35291;BME280;21411;50.024;19.220;2023-06-14T01:39:15;98804.87;;;9.85;100.00
35291;BME280;21411;50.024;19.220;2023-06-14T01:41:43;98803.62;;;9.83;100.00
35291;BME280;21411;50.024;19.220;2023-06-14T01:44:12;98805.77;;;9.80;100.00
35291;BME280;21411;50.024;19.220;2023-06-14T01:46:40;98804.58;;;9.77;100.00
35291;BME280;21411;50.024;19.220;2023-06-14T01:49:08;98809.18;;;9.71;100.00
35291;BME280;21411;50.024;19.220;2023-06-14T01:51:34;98811.27;;;9.66;100.00
35291;BME280;21411;50.024;19.220;2023-06-14T01:54:01;98807.82;;;9.65;100.00
35291;BME280;21411;50.024;19.220;2023-06-14T01:56:28;98805.08;;;9.64;100.00
35291;BME280;21411;50.024;19.220;2023-06-14T01:58:55;98804.38;;;9.63;100.00
35291;BME280;21411;50.024;19.220;2023-06-14T02:01:22;98803.17;;;9.63;100.00
35291;BME280;21411;50.024;19.220;2023-06-14T02:03:48;98805.02;;;9.62;100.00
35291;BME280;21411;50.024;19.220;2023-06-14T02:06:15;98799.13;;;9.62;100.00
35291;BME280;21411;50.024;19.220;2023-06-14T02:08:44;98795.69;;;9.64;100.00
35291;BME280;21411;50.024;19.220;2023-06-14T02:11:11;98797.92;;;9.65;100.00
35291;BME280;21411;50.024;19.220;2023-06-14T02:13:38;98797.67;;;9.65;100.00
35291;BME280;21411;50.024;19.220;2023-06-14T02:16:04;98797.69;;;9.68;100.00
35291;BME280;21411;50.024;19.220;2023-06-14T02:18:31;98800.56;;;9.70;100.00
35291;BME280;21411;50.024;19.220;2023-06-14T02:20:58;98800.48;;;9.72;100.00
35291;BME280;21411;50.024;19.220;2023-06-14T02:23:24;98800.30;;;9.74;100.00
35291;BME280;21411;50.024;19.220;2023-06-14T02:25:51;98797.31;;;9.77;100.00
35291;BME280;21411;50.024;19.220;2023-06-14T02:28:18;98796.95;;;9.79;100.00
35291;BME280;21411;50.024;19.220;2023-06-14T02:30:44;98796.70;;;9.81;100.00
35291;BME280;21411;50.024;19.220;2023-06-14T02:33:11;98796.02;;;9.83;100.00
35291;BME280;21411;50.024;19.220;2023-06-14T02:35:39;98800.33;;;9.87;100.00
35291;BME280;21411;50.024;19.220;2023-06-14T02:38:05;98804.10;;;9.92;100.00
35291;BME280;21411;50.024;19.220;2023-06-14T02:40:32;98804.69;;;9.96;100.00
35291;BME280;21411;50.024;19.220;2023-06-14T02:42:59;98801.19;;;10.03;100.00
35291;BME280;21411;50.024;19.220;2023-06-14T02:45:26;98800.80;;;10.09;100.00
35291;BME280;21411;50.024;19.220;2023-06-14T02:47:52;98799.48;;;10.13;100.00
35291;BME280;21411;50.024;19.220;2023-06-14T02:50:19;98793.11;;;10.15;100.00
35291;BME280;21411;50.024;19.220;2023-06-14T02:52:47;98794.44;;;10.17;100.00
35291;BME280;21411;50.024;19.220;2023-06-14T02:55:14;98794.90;;;10.20;100.00
35291;BME280;21411;50.024;19.220;2023-06-14T02:57:41;98794.19;;;10.25;100.00
35291;BME280;21411;50.024;19.220;2023-06-14T03:00:08;98795.97;;;10.31;100.00
35291;BME280;21411;50.024;19.220;2023-06-14T03:02:39;98796.90;;;10.35;100.00
35291;BME280;21411;50.024;19.220;2023-06-14T03:05:06;98793.80;;;10.39;100.00
35291;BME280;21411;50.024;19.220;2023-06-14T03:07:33;98794.13;;;10.42;100.00
35291;BME280;21411;50.024;19.220;2023-06-14T03:10:00;98791.70;;;10.46;100.00
35291;BME280;21411;50.024;19.220;2023-06-14T03:12:27;98790.30;;;10.48;100.00
35291;BME280;21411;50.024;19.220;2023-06-14T03:14:53;98789.93;;;10.51;100.00
35291;BME280;21411;50.024;19.220;2023-06-14T03:17:23;98791.68;;;10.54;100.00
35291;BME280;21411;50.024;19.220;2023-06-14T03:19:50;98789.71;;;10.57;100.00
35291;BME280;21411;50.024;19.220;2023-06-14T03:22:16;98786.23;;;10.61;100.00
35291;BME280;21411;50.024;19.220;2023-06-14T03:24:43;98787.11;;;10.68;100.00
35291;BME280;21411;50.024;19.220;2023-06-14T03:27:11;98788.05;;;10.75;100.00
35291;BME280;21411;50.024;19.220;2023-06-14T03:29:38;98791.48;;;10.82;100.00
35291;BME280;21411;50.024;19.220;2023-06-14T03:32:05;98791.83;;;10.90;100.00
35291;BME280;21411;50.024;19.220;2023-06-14T03:34:32;98789.86;;;10.97;100.00
35291;BME280;21411;50.024;19.220;2023-06-14T03:36:58;98787.89;;;11.05;100.00
35291;BME280;21411;50.024;19.220;2023-06-14T03:39:25;98790.60;;;11.14;100.00
35291;BME280;21411;50.024;19.220;2023-06-14T03:41:51;98796.81;;;11.21;100.00
35291;BME280;21411;50.024;19.220;2023-06-14T03:44:18;98798.42;;;11.29;100.00
35291;BME280;21411;50.024;19.220;2023-06-14T03:46:46;98798.36;;;11.35;100.00
35291;BME280;21411;50.024;19.220;2023-06-14T03:49:13;98800.07;;;11.38;100.00
35291;BME280;21411;50.024;19.220;2023-06-14T03:51:39;98800.44;;;11.43;100.00
35291;BME280;21411;50.024;19.220;2023-06-14T03:54:06;98804.29;;;11.51;100.00
35291;BME280;21411;50.024;19.220;2023-06-14T03:56:33;98801.59;;;11.58;100.00
35291;BME280;21411;50.024;19.220;2023-06-14T03:59:00;98801.30;;;11.65;100.00
35291;BME280;21411;50.024;19.220;2023-06-14T04:01:26;98802.89;;;11.70;100.00
35291;BME280;21411;50.024;19.220;2023-06-14T04:03:56;98806.52;;;11.74;100.00
35291;BME280;21411;50.024;19.220;2023-06-14T04:06:24;98807.43;;;11.78;100.00
35291;BME280;21411;50.024;19.220;2023-06-14T04:08:51;98807.80;;;11.85;100.00
35291;BME280;21411;50.024;19.220;2023-06-14T04:11:18;98808.70;;;11.95;100.00
35291;BME280;21411;50.024;19.220;2023-06-14T04:13:45;98811.94;;;12.06;100.00
35291;BME280;21411;50.024;19.220;2023-06-14T04:16:13;98811.70;;;12.16;100.00
35291;BME280;21411;50.024;19.220;2023-06-14T04:18:40;98810.73;;;12.22;100.00
35291;BME280;21411;50.024;19.220;2023-06-14T04:21:06;98811.23;;;12.27;100.00
35291;BME280;21411;50.024;19.220;2023-06-14T04:23:34;98813.59;;;12.36;100.00
35291;BME280;21411;50.024;19.220;2023-06-14T04:26:01;98812.83;;;12.43;100.00
35291;BME280;21411;50.024;19.220;2023-06-14T04:28:28;98809.64;;;12.52;100.00
35291;BME280;21411;50.024;19.220;2023-06-14T04:30:55;98806.44;;;12.59;100.00
35291;BME280;21411;50.024;19.220;2023-06-14T04:33:22;98810.45;;;12.65;100.00
35291;BME280;21411;50.024;19.220;2023-06-14T04:35:51;98809.98;;;12.68;100.00
35291;BME280;21411;50.024;19.220;2023-06-14T04:38:20;98814.59;;;12.73;100.00
35291;BME280;21411;50.024;19.220;2023-06-14T04:40:51;98812.34;;;12.81;100.00
35291;BME280;21411;50.024;19.220;2023-06-14T04:43:19;98807.92;;;12.92;100.00
35291;BME280;21411;50.024;19.220;2023-06-14T04:45:51;98805.52;;;13.04;100.00
35291;BME280;21411;50.024;19.220;2023-06-14T04:48:18;98800.09;;;13.14;100.00
35291;BME280;21411;50.024;19.220;2023-06-14T04:50:46;98803.90;;;13.27;100.00
35291;BME280;21411;50.024;19.220;2023-06-14T04:53:13;98800.67;;;13.43;100.00
35291;BME280;21411;50.024;19.220;2023-06-14T04:55:40;98798.43;;;13.61;100.00
35291;BME280;21411;50.024;19.220;2023-06-14T04:58:11;98795.15;;;13.83;100.00
35291;BME280;21411;50.024;19.220;2023-06-14T05:00:39;98795.60;;;14.16;100.00
35291;BME280;21411;50.024;19.220;2023-06-14T05:03:05;98797.66;;;14.53;100.00
35291;BME280;21411;50.024;19.220;2023-06-14T05:05:33;98797.73;;;15.21;100.00
35291;BME280;21411;50.024;19.220;2023-06-14T05:08:00;98797.73;;;16.18;100.00
35291;BME280;21411;50.024;19.220;2023-06-14T05:10:26;98802.13;;;16.46;100.00
35291;BME280;21411;50.024;19.220;2023-06-14T05:12:53;98805.92;;;16.42;100.00
35291;BME280;21411;50.024;19.220;2023-06-14T05:15:20;98812.12;;;16.21;100.00
35291;BME280;21411;50.024;19.220;2023-06-14T05:17:51;98815.11;;;16.03;100.00
35291;BME280;21411;50.024;19.220;2023-06-14T05:20:22;98817.20;;;15.96;100.00
35291;BME280;21411;50.024;19.220;2023-06-14T05:22:52;98817.77;;;15.94;100.00
35291;BME280;21411;50.024;19.220;2023-06-14T05:25:20;98816.80;;;15.96;100.00
35291;BME280;21411;50.024;19.220;2023-06-14T05:27:47;98820.54;;;16.06;100.00
35291;BME280;21411;50.024;19.220;2023-06-14T05:30:15;98822.13;;;16.16;100.00
35291;BME280;21411;50.024;19.220;2023-06-14T05:32:42;98825.03;;;16.16;100.00
35291;BME280;21411;50.024;19.220;2023-06-14T05:35:08;98825.29;;;16.11;100.00
35291;BME280;21411;50.024;19.220;2023-06-14T05:37:35;98828.77;;;16.12;100.00
35291;BME280;21411;50.024;19.220;2023-06-14T05:40:03;98832.00;;;16.16;100.00
35291;BME280;21411;50.024;19.220;2023-06-14T05:42:33;98831.66;;;16.18;100.00
35291;BME280;21411;50.024;19.220;2023-06-14T05:45:00;98830.73;;;16.16;100.00
35291;BME280;21411;50.024;19.220;2023-06-14T05:47:26;98830.92;;;16.20;100.00
35291;BME280;21411;50.024;19.220;2023-06-14T05:49:54;98832.70;;;16.24;100.00
35291;BME280;21411;50.024;19.220;2023-06-14T05:52:21;98832.96;;;16.21;100.00
35291;BME280;21411;50.024;19.220;2023-06-14T05:54:48;98835.43;;;16.29;100.00
35291;BME280;21411;50.024;19.220;2023-06-14T05:57:14;98831.36;;;16.48;100.00
35291;BME280;21411;50.024;19.220;2023-06-14T05:59:41;98827.50;;;16.74;100.00
35291;BME280;21411;50.024;19.220;2023-06-14T06:02:08;98833.32;;;16.96;100.00
35291;BME280;21411;50.024;19.220;2023-06-14T06:04:34;98829.34;;;17.18;100.00
35291;BME280;21411;50.024;19.220;2023-06-14T06:07:01;98826.17;;;17.52;100.00
35291;BME280;21411;50.024;19.220;2023-06-14T06:09:28;98825.66;;;17.90;98.86
35291;BME280;21411;50.024;19.220;2023-06-14T06:11:54;98822.73;;;18.23;96.46
35291;BME280;21411;50.024;19.220;2023-06-14T06:14:21;98824.73;;;18.39;95.49
35291;BME280;21411;50.024;19.220;2023-06-14T06:16:48;98821.91;;;18.42;95.67
35291;BME280;21411;50.024;19.220;2023-06-14T06:19:14;98821.50;;;18.46;95.09
35291;BME280;21411;50.024;19.220;2023-06-14T06:21:41;98821.64;;;18.34;93.80
35291;BME280;21411;50.024;19.220;2023-06-14T06:24:08;98826.77;;;18.07;92.50
35291;BME280;21411;50.024;19.220;2023-06-14T06:26:34;98825.96;;;17.75;92.70
35291;BME280;21411;50.024;19.220;2023-06-14T06:29:01;98828.66;;;17.49;93.25
35291;BME280;21411;50.024;19.220;2023-06-14T06:31:28;98837.60;;;17.28;93.53
35291;BME280;21411;50.024;19.220;2023-06-14T06:33:55;98843.73;;;17.07;93.50
35291;BME280;21411;50.024;19.220;2023-06-14T06:36:22;98842.73;;;16.95;94.36
35291;BME280;21411;50.024;19.220;2023-06-14T06:38:49;98849.16;;;16.80;94.97
35291;BME280;21411;50.024;19.220;2023-06-14T06:41:15;98854.13;;;16.58;95.41
35291;BME280;21411;50.024;19.220;2023-06-14T06:43:42;98856.07;;;16.31;96.62
35291;BME280;21411;50.024;19.220;2023-06-14T06:46:08;98856.82;;;16.13;98.07
35291;BME280;21411;50.024;19.220;2023-06-14T06:48:35;98857.23;;;15.97;98.63
35291;BME280;21411;50.024;19.220;2023-06-14T06:51:01;98859.30;;;15.80;99.66
35291;BME280;21411;50.024;19.220;2023-06-14T06:53:28;98861.23;;;15.69;100.00
35291;BME280;21411;50.024;19.220;2023-06-14T06:55:54;98863.95;;;15.58;100.00
35291;BME280;21411;50.024;19.220;2023-06-14T06:58:21;98864.46;;;15.46;100.00
35291;BME280;21411;50.024;19.220;2023-06-14T07:00:48;98869.23;;;15.39;100.00
35291;BME280;21411;50.024;19.220;2023-06-14T07:03:15;98871.97;;;15.36;100.00
35291;BME280;21411;50.024;19.220;2023-06-14T07:05:42;98874.39;;;15.31;100.00
35291;BME280;21411;50.024;19.220;2023-06-14T07:08:08;98876.51;;;15.24;100.00
35291;BME280;21411;50.024;19.220;2023-06-14T07:10:35;98881.77;;;15.17;100.00
35291;BME280;21411;50.024;19.220;2023-06-14T07:13:01;98880.55;;;15.12;100.00
35291;BME280;21411;50.024;19.220;2023-06-14T07:15:28;98880.13;;;15.07;100.00
35291;BME280;21411;50.024;19.220;2023-06-14T07:17:54;98881.64;;;15.02;100.00
35291;BME280;21411;50.024;19.220;2023-06-14T07:20:25;98885.34;;;14.96;100.00
35291;BME280;21411;50.024;19.220;2023-06-14T07:22:52;98887.38;;;14.93;100.00
35291;BME280;21411;50.024;19.220;2023-06-14T07:25:18;98890.08;;;14.93;100.00
35291;BME280;21411;50.024;19.220;2023-06-14T07:27:46;98890.88;;;14.90;100.00
35291;BME280;21411;50.024;19.220;2023-06-14T07:30:12;98889.92;;;14.82;100.00
35291;BME280;21411;50.024;19.220;2023-06-14T07:32:39;98893.86;;;14.80;100.00
35291;BME280;21411;50.024;19.220;2023-06-14T07:35:06;98894.59;;;14.88;100.00
35291;BME280;21411;50.024;19.220;2023-06-14T07:37:33;98896.30;;;15.02;100.00
35291;BME280;21411;50.024;19.220;2023-06-14T07:39:59;98896.70;;;15.16;100.00
35291;BME280;21411;50.024;19.220;2023-06-14T07:42:26;98896.52;;;15.32;100.00
35291;BME280;21411;50.024;19.220;2023-06-14T07:44:52;98897.64;;;15.48;100.00
35291;BME280;21411;50.024;19.220;2023-06-14T07:47:20;98900.17;;;15.66;100.00
35291;BME280;21411;50.024;19.220;2023-06-14T07:49:46;98904.40;;;15.85;100.00
35291;BME280;21411;50.024;19.220;2023-06-14T07:52:13;98904.20;;;15.95;100.00
35291;BME280;21411;50.024;19.220;2023-06-14T07:54:39;98906.98;;;15.96;100.00
35291;BME280;21411;50.024;19.220;2023-06-14T07:57:07;98908.29;;;15.95;100.00
35291;BME280;21411;50.024;19.220;2023-06-14T07:59:35;98907.20;;;15.97;100.00
35291;BME280;21411;50.024;19.220;2023-06-14T08:02:02;98904.20;;;16.05;100.00
35291;BME280;21411;50.024;19.220;2023-06-14T08:04:28;98900.09;;;16.14;100.00
35291;BME280;21411;50.024;19.220;2023-06-14T08:06:55;98894.28;;;16.31;100.00
35291;BME280;21411;50.024;19.220;2023-06-14T08:09:22;98893.39;;;16.44;100.00
35291;BME280;21411;50.024;19.220;2023-06-14T08:11:49;98895.72;;;16.54;100.00
35291;BME280;21411;50.024;19.220;2023-06-14T08:14:15;98896.11;;;16.63;100.00
35291;BME280;21411;50.024;19.220;2023-06-14T08:16:42;98894.91;;;16.74;100.00
35291;BME280;21411;50.024;19.220;2023-06-14T08:19:08;98892.23;;;16.88;100.00
35291;BME280;21411;50.024;19.220;2023-06-14T08:21:35;98890.27;;;17.06;100.00
35291;BME280;21411;50.024;19.220;2023-06-14T08:24:03;98886.86;;;17.27;100.00
35291;BME280;21411;50.024;19.220;2023-06-14T08:26:30;98887.25;;;17.51;100.00
35291;BME280;21411;50.024;19.220;2023-06-14T08:28:58;98886.45;;;17.79;100.00
35291;BME280;21411;50.024;19.220;2023-06-14T08:31:24;98885.34;;;17.91;100.00
35291;BME280;21411;50.024;19.220;2023-06-14T08:33:51;98891.41;;;17.96;100.00
35291;BME280;21411;50.024;19.220;2023-06-14T08:36:18;98892.25;;;17.95;100.00
35291;BME280;21411;50.024;19.220;2023-06-14T08:38:45;98897.16;;;17.80;100.00
35291;BME280;21411;50.024;19.220;2023-06-14T08:41:11;98898.47;;;17.61;100.00
35291;BME280;21411;50.024;19.220;2023-06-14T08:43:39;98899.87;;;17.39;100.00
35291;BME280;21411;50.024;19.220;2023-06-14T08:46:07;98904.35;;;17.17;100.00
35291;BME280;21411;50.024;19.220;2023-06-14T08:48:36;98908.82;;;17.04;100.00
35291;BME280;21411;50.024;19.220;2023-06-14T08:51:04;98911.30;;;16.87;100.00
35291;BME280;21411;50.024;19.220;2023-06-14T08:53:31;98910.45;;;16.79;100.00
35291;BME280;21411;50.024;19.220;2023-06-14T08:56:00;98912.85;;;16.84;100.00
35291;BME280;21411;50.024;19.220;2023-06-14T08:58:31;98916.33;;;16.89;100.00
35291;BME280;21411;50.024;19.220;2023-06-14T09:01:04;98921.65;;;16.92;100.00
35291;BME280;21411;50.024;19.220;2023-06-14T09:03:31;98923.94;;;16.94;100.00
35291;BME280;21411;50.024;19.220;2023-06-14T09:05:59;98923.92;;;16.90;100.00
35291;BME280;21411;50.024;19.220;2023-06-14T09:08:27;98927.09;;;16.91;100.00
35291;BME280;21411;50.024;19.220;2023-06-14T09:10:57;98928.21;;;16.83;100.00
35291;BME280;21411;50.024;19.220;2023-06-14T09:13:23;98929.93;;;16.70;100.00
35291;BME280;21411;50.024;19.220;2023-06-14T09:15:50;98931.13;;;16.61;100.00
35291;BME280;21411;50.024;19.220;2023-06-14T09:18:17;98929.29;;;16.58;100.00
35291;BME280;21411;50.024;19.220;2023-06-14T09:20:43;98928.18;;;16.62;100.00
35291;BME280;21411;50.024;19.220;2023-06-14T09:23:10;98926.69;;;16.59;100.00
35291;BME280;21411;50.024;19.220;2023-06-14T09:25:45;98929.85;;;16.51;100.00
35291;BME280;21411;50.024;19.220;2023-06-14T09:28:12;98929.77;;;16.52;100.00
35291;BME280;21411;50.024;19.220;2023-06-14T09:30:38;98934.75;;;16.55;100.00
35291;BME280;21411;50.024;19.220;2023-06-14T09:33:05;98932.38;;;16.55;100.00
35291;BME280;21411;50.024;19.220;2023-06-14T09:35:32;98936.30;;;16.55;100.00
35291;BME280;21411;50.024;19.220;2023-06-14T09:37:59;98938.55;;;16.54;100.00
35291;BME280;21411;50.024;19.220;2023-06-14T09:40:26;98935.95;;;16.54;100.00
35291;BME280;21411;50.024;19.220;2023-06-14T09:42:53;98930.90;;;16.50;100.00
35291;BME280;21411;50.024;19.220;2023-06-14T09:45:20;98930.62;;;16.41;100.00
35291;BME280;21411;50.024;19.220;2023-06-14T09:47:51;98926.63;;;16.38;100.00
35291;BME280;21411;50.024;19.220;2023-06-14T09:50:17;98928.23;;;16.36;100.00
35291;BME280;21411;50.024;19.220;2023-06-14T09:52:44;98928.61;;;16.36;100.00
35291;BME280;21411;50.024;19.220;2023-06-14T09:55:13;98931.86;;;16.34;100.00
35291;BME280;21411;50.024;19.220;2023-06-14T09:57:45;98931.75;;;16.33;100.00
35291;BME280;21411;50.024;19.220;2023-06-14T10:00:13;98931.81;;;16.32;100.00
35291;BME280;21411;50.024;19.220;2023-06-14T10:02:42;98934.77;;;16.33;100.00
35291;BME280;21411;50.024;19.220;2023-06-14T10:05:15;98938.38;;;16.35;100.00
35291;BME280;21411;50.024;19.220;2023-06-14T10:08:04;98935.56;;;16.36;100.00
35291;BME280;21411;50.024;19.220;2023-06-14T10:10:31;98935.94;;;16.30;100.00
35291;BME280;21411;50.024;19.220;2023-06-14T10:12:58;98935.51;;;16.23;100.00
35291;BME280;21411;50.024;19.220;2023-06-14T10:15:33;98935.35;;;16.19;100.00
35291;BME280;21411;50.024;19.220;2023-06-14T10:18:09;98937.14;;;16.19;100.00
35291;BME280;21411;50.024;19.220;2023-06-14T10:21:18;98941.52;;;16.30;100.00
35291;BME280;21411;50.024;19.220;2023-06-14T10:23:49;98938.41;;;16.64;100.00
35291;BME280;21411;50.024;19.220;2023-06-14T10:26:20;98934.36;;;16.97;100.00
35291;BME280;21411;50.024;19.220;2023-06-14T10:29:06;98930.41;;;17.30;100.00
35291;BME280;21411;50.024;19.220;2023-06-14T10:31:40;98925.52;;;17.67;100.00
35291;BME280;21411;50.024;19.220;2023-06-14T10:34:08;98922.64;;;18.06;100.00
35291;BME280;21411;50.024;19.220;2023-06-14T10:36:35;98921.09;;;18.41;100.00
35291;BME280;21411;50.024;19.220;2023-06-14T10:39:07;98920.43;;;18.71;99.78
35291;BME280;21411;50.024;19.220;2023-06-14T10:41:38;98914.95;;;18.95;98.46
35291;BME280;21411;50.024;19.220;2023-06-14T10:46:46;98913.98;;;19.90;93.34
35291;BME280;21411;50.024;19.220;2023-06-14T10:49:16;98914.87;;;20.36;90.88
35291;BME280;21411;50.024;19.220;2023-06-14T10:51:49;98913.45;;;20.85;89.64
35291;BME280;21411;50.024;19.220;2023-06-14T10:54:16;98910.00;;;21.27;87.41
35291;BME280;21411;50.024;19.220;2023-06-14T10:56:50;98907.34;;;21.44;82.67
35291;BME280;21411;50.024;19.220;2023-06-14T10:59:19;98905.56;;;21.51;82.38
35291;BME280;21411;50.024;19.220;2023-06-14T11:04:46;98906.61;;;21.49;79.27
35291;BME280;21411;50.024;19.220;2023-06-14T11:12:45;98906.31;;;21.03;76.90
35291;BME280;21411;50.024;19.220;2023-06-14T11:15:13;98903.50;;;21.08;75.46
35291;BME280;21411;50.024;19.220;2023-06-14T11:17:51;98897.61;;;21.11;75.04
35291;BME280;21411;50.024;19.220;2023-06-14T11:20:19;98895.62;;;21.36;74.93
35291;BME280;21411;50.024;19.220;2023-06-14T11:22:47;98894.46;;;21.51;73.41
35291;BME280;21411;50.024;19.220;2023-06-14T11:25:13;98893.41;;;21.53;73.06
35291;BME280;21411;50.024;19.220;2023-06-14T11:27:44;98889.83;;;21.80;72.89
35291;BME280;21411;50.024;19.220;2023-06-14T11:30:13;98884.17;;;21.98;72.65
35291;BME280;21411;50.024;19.220;2023-06-14T11:32:39;98886.05;;;22.27;71.07
35291;BME280;21411;50.024;19.220;2023-06-14T11:35:08;98887.99;;;22.28;70.34
35291;BME280;21411;50.024;19.220;2023-06-14T11:37:36;98883.72;;;22.23;69.62
35291;BME280;21411;50.024;19.220;2023-06-14T11:40:04;98880.61;;;22.38;69.03
35291;BME280;21411;50.024;19.220;2023-06-14T11:42:36;98881.73;;;22.50;68.15
35291;BME280;21411;50.024;19.220;2023-06-14T11:45:04;98884.56;;;22.37;65.90
35291;BME280;21411;50.024;19.220;2023-06-14T11:47:40;98888.20;;;22.01;66.63
35291;BME280;21411;50.024;19.220;2023-06-14T11:50:08;98888.67;;;21.89;67.19
35291;BME280;21411;50.024;19.220;2023-06-14T11:52:36;98883.30;;;22.18;68.00
35291;BME280;21411;50.024;19.220;2023-06-14T11:55:03;98880.25;;;22.58;66.65
35291;BME280;21411;50.024;19.220;2023-06-14T11:57:35;98878.73;;;22.66;65.40
35291;BME280;21411;50.024;19.220;2023-06-14T12:00:08;98877.33;;;22.75;64.81
35291;BME280;21411;50.024;19.220;2023-06-14T12:02:38;98880.69;;;22.56;64.50
35291;BME280;21411;50.024;19.220;2023-06-14T12:05:07;98874.14;;;22.53;64.33
35291;BME280;21411;50.024;19.220;2023-06-14T12:07:39;98868.19;;;22.60;64.24
35291;BME280;21411;50.024;19.220;2023-06-14T12:10:11;98868.67;;;22.82;64.61
35291;BME280;21411;50.024;19.220;2023-06-14T12:12:39;98866.84;;;23.11;64.75
35291;BME280;21411;50.024;19.220;2023-06-14T12:15:07;98864.51;;;23.17;63.28
35291;BME280;21411;50.024;19.220;2023-06-14T12:17:38;98868.35;;;22.94;63.19
35291;BME280;21411;50.024;19.220;2023-06-14T12:20:09;98869.52;;;22.58;62.55
35291;BME280;21411;50.024;19.220;2023-06-14T12:22:53;98869.48;;;22.25;63.29
35291;BME280;21411;50.024;19.220;2023-06-14T12:27:54;98862.40;;;21.93;63.33
35291;BME280;21411;50.024;19.220;2023-06-14T12:30:21;98859.89;;;21.86;63.06
35291;BME280;21411;50.024;19.220;2023-06-14T12:32:48;98860.88;;;21.73;62.32
35291;BME280;21411;50.024;19.220;2023-06-14T12:35:15;98861.74;;;21.70;62.76
35291;BME280;21411;50.024;19.220;2023-06-14T12:37:41;98859.74;;;21.70;63.06
35291;BME280;21411;50.024;19.220;2023-06-14T12:40:08;98851.09;;;21.84;63.25
35291;BME280;21411;50.024;19.220;2023-06-14T12:42:38;98849.04;;;21.99;62.51
35291;BME280;21411;50.024;19.220;2023-06-14T12:45:04;98846.65;;;22.05;61.51
35291;BME280;21411;50.024;19.220;2023-06-14T12:47:31;98843.04;;;21.97;61.17
35291;BME280;21411;50.024;19.220;2023-06-14T12:49:58;98844.66;;;22.04;61.44
35291;BME280;21411;50.024;19.220;2023-06-14T12:52:24;98844.94;;;22.34;61.10
35291;BME280;21411;50.024;19.220;2023-06-14T12:54:51;98842.74;;;22.66;60.78
35291;BME280;21411;50.024;19.220;2023-06-14T12:57:17;98841.91;;;22.82;60.39
35291;BME280;21411;50.024;19.220;2023-06-14T12:59:44;98838.52;;;22.89;60.42
35291;BME280;21411;50.024;19.220;2023-06-14T13:02:15;98839.38;;;22.73;60.59
35291;BME280;21411;50.024;19.220;2023-06-14T13:04:42;98841.23;;;22.39;60.73